Terminal Aerodrome Forecast
Issued by NWS Denver/Boulder, CO

Home | Current Version | Previous Version | Graphics & Text | Print | Product List | Glossary On
Versions: 1 2 3 4 5 6 7 8 9 10 11 12 13 14 15 16 17 18 19 20 21 22 23 24 25 26 27 28 29 30 31 32 33 34 35 36 37 38 39 40 41 42 43 44 45 46 47 48 49 50
000
FTUS45 KBOU 211249 AAB
TAFDEN
TAF AMD
KDEN 211249Z 2113/2218 29015G25KT P6SM SKC
     FM211600 27022G32KT P6SM SCT150 BKN220
     FM212000 26015G21KT P6SM SCT140 BKN220
     FM220000 25013KT P6SM SCT140 BKN220
     FM220200 22012KT P6SM SCT220
     FM221500 25015G21KT P6SM SCT220=

USA.gov is the U.S. government's official web portal to all federal, state and local government web resources and services.